sensor_id;sensor_type;location;lat;lon;timestamp;P1;durP1;ratioP1;P2;durP2;ratioP2
3633;SDS011;1833;42.718;23.270;2023-05-07T00:01:52;27.30;;;24.80;;
3633;SDS011;1833;42.718;23.270;2023-05-07T00:04:20;27.60;;;25.10;;
3633;SDS011;1833;42.718;23.270;2023-05-07T00:06:47;28.03;;;25.10;;
3633;SDS011;1833;42.718;23.270;2023-05-07T00:09:14;27.80;;;25.23;;
3633;SDS011;1833;42.718;23.270;2023-05-07T00:11:44;28.50;;;25.60;;
3633;SDS011;1833;42.718;23.270;2023-05-07T00:14:11;27.50;;;25.20;;
3633;SDS011;1833;42.718;23.270;2023-05-07T00:16:38;27.50;;;24.90;;
3633;SDS011;1833;42.718;23.270;2023-05-07T00:19:05;28.47;;;25.53;;
3633;SDS011;1833;42.718;23.270;2023-05-07T00:21:33;26.70;;;24.50;;
3633;SDS011;1833;42.718;23.270;2023-05-07T00:24:00;28.00;;;25.50;;
3633;SDS011;1833;42.718;23.270;2023-05-07T00:26:27;27.90;;;25.50;;
3633;SDS011;1833;42.718;23.270;2023-05-07T00:28:56;27.07;;;24.77;;
3633;SDS011;1833;42.718;23.270;2023-05-07T00:31:23;27.67;;;25.33;;
3633;SDS011;1833;42.718;23.270;2023-05-07T00:33:51;27.53;;;25.07;;
3633;SDS011;1833;42.718;23.270;2023-05-07T00:36:18;28.10;;;25.20;;
3633;SDS011;1833;42.718;23.270;2023-05-07T00:38:45;26.53;;;24.13;;
3633;SDS011;1833;42.718;23.270;2023-05-07T00:41:12;27.70;;;24.97;;
3633;SDS011;1833;42.718;23.270;2023-05-07T00:43:40;26.90;;;24.60;;
3633;SDS011;1833;42.718;23.270;2023-05-07T00:46:08;26.87;;;24.30;;
3633;SDS011;1833;42.718;23.270;2023-05-07T00:48:37;25.97;;;23.80;;
3633;SDS011;1833;42.718;23.270;2023-05-07T00:51:04;27.17;;;24.90;;
3633;SDS011;1833;42.718;23.270;2023-05-07T00:53:32;27.00;;;24.60;;
3633;SDS011;1833;42.718;23.270;2023-05-07T00:55:59;25.93;;;23.93;;
3633;SDS011;1833;42.718;23.270;2023-05-07T00:58:27;27.20;;;24.50;;
3633;SDS011;1833;42.718;23.270;2023-05-07T01:00:56;26.87;;;24.67;;
3633;SDS011;1833;42.718;23.270;2023-05-07T01:03:24;25.53;;;23.30;;
3633;SDS011;1833;42.718;23.270;2023-05-07T01:05:52;26.57;;;24.50;;
3633;SDS011;1833;42.718;23.270;2023-05-07T01:08:20;27.20;;;24.37;;
3633;SDS011;1833;42.718;23.270;2023-05-07T01:10:47;25.77;;;23.67;;
3633;SDS011;1833;42.718;23.270;2023-05-07T01:13:15;24.93;;;23.03;;
3633;SDS011;1833;42.718;23.270;2023-05-07T01:15:42;26.53;;;24.00;;
3633;SDS011;1833;42.718;23.270;2023-05-07T01:18:10;25.57;;;23.37;;
3633;SDS011;1833;42.718;23.270;2023-05-07T01:20:39;26.67;;;24.30;;
3633;SDS011;1833;42.718;23.270;2023-05-07T01:23:07;24.93;;;23.03;;
3633;SDS011;1833;42.718;23.270;2023-05-07T01:25:35;28.07;;;25.67;;
3633;SDS011;1833;42.718;23.270;2023-05-07T01:28:03;28.33;;;25.27;;
3633;SDS011;1833;42.718;23.270;2023-05-07T01:30:30;28.40;;;24.90;;
3633;SDS011;1833;42.718;23.270;2023-05-07T01:33:00;26.13;;;23.53;;
3633;SDS011;1833;42.718;23.270;2023-05-07T01:35:30;27.40;;;24.90;;
3633;SDS011;1833;42.718;23.270;2023-05-07T01:37:59;27.83;;;25.30;;
3633;SDS011;1833;42.718;23.270;2023-05-07T01:40:30;27.70;;;24.90;;
3633;SDS011;1833;42.718;23.270;2023-05-07T01:42:59;28.90;;;25.93;;
3633;SDS011;1833;42.718;23.270;2023-05-07T01:45:26;28.50;;;26.00;;
3633;SDS011;1833;42.718;23.270;2023-05-07T01:47:54;27.10;;;24.97;;
3633;SDS011;1833;42.718;23.270;2023-05-07T01:50:22;26.40;;;23.83;;
3633;SDS011;1833;42.718;23.270;2023-05-07T01:52:50;26.47;;;23.97;;
3633;SDS011;1833;42.718;23.270;2023-05-07T01:55:17;26.67;;;24.53;;
3633;SDS011;1833;42.718;23.270;2023-05-07T01:57:46;27.10;;;24.30;;
3633;SDS011;1833;42.718;23.270;2023-05-07T02:00:13;25.97;;;23.70;;
3633;SDS011;1833;42.718;23.270;2023-05-07T02:02:41;25.43;;;23.33;;
3633;SDS011;1833;42.718;23.270;2023-05-07T02:05:08;25.60;;;23.50;;
3633;SDS011;1833;42.718;23.270;2023-05-07T02:07:35;25.50;;;23.50;;
3633;SDS011;1833;42.718;23.270;2023-05-07T02:10:03;27.90;;;24.40;;
3633;SDS011;1833;42.718;23.270;2023-05-07T02:12:31;26.47;;;24.27;;
3633;SDS011;1833;42.718;23.270;2023-05-07T02:15:00;25.37;;;23.23;;
3633;SDS011;1833;42.718;23.270;2023-05-07T02:17:27;26.40;;;23.90;;
3633;SDS011;1833;42.718;23.270;2023-05-07T02:19:56;25.70;;;23.30;;
3633;SDS011;1833;42.718;23.270;2023-05-07T02:22:24;26.77;;;24.27;;
3633;SDS011;1833;42.718;23.270;2023-05-07T02:24:51;25.70;;;23.70;;
3633;SDS011;1833;42.718;23.270;2023-05-07T02:27:18;26.97;;;24.60;;
3633;SDS011;1833;42.718;23.270;2023-05-07T02:29:48;25.77;;;23.53;;
3633;SDS011;1833;42.718;23.270;2023-05-07T02:32:16;28.50;;;25.83;;
3633;SDS011;1833;42.718;23.270;2023-05-07T02:34:44;29.03;;;25.93;;
3633;SDS011;1833;42.718;23.270;2023-05-07T02:37:11;28.07;;;25.40;;
3633;SDS011;1833;42.718;23.270;2023-05-07T02:39:38;29.20;;;26.40;;
3633;SDS011;1833;42.718;23.270;2023-05-07T02:42:05;30.33;;;27.17;;
3633;SDS011;1833;42.718;23.270;2023-05-07T02:44:33;30.03;;;27.33;;
3633;SDS011;1833;42.718;23.270;2023-05-07T02:47:00;29.83;;;27.00;;
3633;SDS011;1833;42.718;23.270;2023-05-07T02:49:29;29.83;;;26.80;;
3633;SDS011;1833;42.718;23.270;2023-05-07T02:51:56;29.50;;;26.70;;
3633;SDS011;1833;42.718;23.270;2023-05-07T02:54:23;28.53;;;25.93;;
3633;SDS011;1833;42.718;23.270;2023-05-07T02:56:51;26.83;;;24.27;;
3633;SDS011;1833;42.718;23.270;2023-05-07T02:59:18;34.13;;;26.50;;
3633;SDS011;1833;42.718;23.270;2023-05-07T03:01:45;30.97;;;25.00;;
3633;SDS011;1833;42.718;23.270;2023-05-07T03:04:13;29.53;;;26.17;;
3633;SDS011;1833;42.718;23.270;2023-05-07T03:06:42;27.70;;;25.30;;
3633;SDS011;1833;42.718;23.270;2023-05-07T03:09:09;28.27;;;25.67;;
3633;SDS011;1833;42.718;23.270;2023-05-07T03:11:37;27.43;;;24.83;;
3633;SDS011;1833;42.718;23.270;2023-05-07T03:14:04;28.33;;;25.43;;
3633;SDS011;1833;42.718;23.270;2023-05-07T03:16:31;26.40;;;24.20;;
3633;SDS011;1833;42.718;23.270;2023-05-07T03:18:59;29.13;;;26.20;;
3633;SDS011;1833;42.718;23.270;2023-05-07T03:21:26;27.70;;;25.30;;
3633;SDS011;1833;42.718;23.270;2023-05-07T03:23:54;26.67;;;24.27;;
3633;SDS011;1833;42.718;23.270;2023-05-07T03:26:22;27.67;;;25.07;;
3633;SDS011;1833;42.718;23.270;2023-05-07T03:28:50;28.23;;;25.53;;
3633;SDS011;1833;42.718;23.270;2023-05-07T03:31:20;26.30;;;24.03;;
3633;SDS011;1833;42.718;23.270;2023-05-07T03:33:50;27.47;;;24.93;;
3633;SDS011;1833;42.718;23.270;2023-05-07T03:36:18;26.50;;;24.20;;
3633;SDS011;1833;42.718;23.270;2023-05-07T03:38:45;26.87;;;24.37;;
3633;SDS011;1833;42.718;23.270;2023-05-07T03:41:14;28.43;;;25.83;;
3633;SDS011;1833;42.718;23.270;2023-05-07T03:43:41;27.57;;;24.93;;
3633;SDS011;1833;42.718;23.270;2023-05-07T03:46:08;25.70;;;23.53;;
3633;SDS011;1833;42.718;23.270;2023-05-07T03:48:36;25.87;;;23.60;;
3633;SDS011;1833;42.718;23.270;2023-05-07T03:51:03;27.07;;;24.77;;
3633;SDS011;1833;42.718;23.270;2023-05-07T03:53:30;27.03;;;24.53;;
3633;SDS011;1833;42.718;23.270;2023-05-07T03:55:58;26.60;;;24.03;;
3633;SDS011;1833;42.718;23.270;2023-05-07T03:58:26;25.63;;;23.33;;
3633;SDS011;1833;42.718;23.270;2023-05-07T04:00:54;26.73;;;24.50;;
3633;SDS011;1833;42.718;23.270;2023-05-07T04:03:21;26.83;;;24.20;;
3633;SDS011;1833;42.718;23.270;2023-05-07T04:05:48;24.57;;;22.67;;
3633;SDS011;1833;42.718;23.270;2023-05-07T04:08:15;25.27;;;22.77;;
3633;SDS011;1833;42.718;23.270;2023-05-07T04:10:43;24.40;;;22.40;;
3633;SDS011;1833;42.718;23.270;2023-05-07T04:13:10;25.73;;;23.47;;
3633;SDS011;1833;42.718;23.270;2023-05-07T04:15:38;27.00;;;24.20;;
3633;SDS011;1833;42.718;23.270;2023-05-07T04:18:06;26.97;;;24.57;;
3633;SDS011;1833;42.718;23.270;2023-05-07T04:20:33;27.63;;;25.13;;
3633;SDS011;1833;42.718;23.270;2023-05-07T04:23:02;28.83;;;26.20;;
3633;SDS011;1833;42.718;23.270;2023-05-07T04:25:29;29.93;;;26.00;;
3633;SDS011;1833;42.718;23.270;2023-05-07T04:27:57;28.80;;;26.33;;
3633;SDS011;1833;42.718;23.270;2023-05-07T04:30:24;29.50;;;26.70;;
3633;SDS011;1833;42.718;23.270;2023-05-07T04:32:53;29.60;;;27.03;;
3633;SDS011;1833;42.718;23.270;2023-05-07T04:35:21;30.97;;;28.07;;
3633;SDS011;1833;42.718;23.270;2023-05-07T04:37:48;32.83;;;29.50;;
3633;SDS011;1833;42.718;23.270;2023-05-07T04:40:15;30.50;;;27.77;;
3633;SDS011;1833;42.718;23.270;2023-05-07T04:42:43;38.57;;;28.90;;
3633;SDS011;1833;42.718;23.270;2023-05-07T04:45:10;32.23;;;29.17;;
3633;SDS011;1833;42.718;23.270;2023-05-07T04:47:38;31.73;;;28.73;;
3633;SDS011;1833;42.718;23.270;2023-05-07T04:50:08;31.17;;;28.47;;
3633;SDS011;1833;42.718;23.270;2023-05-07T04:52:35;34.73;;;31.43;;
3633;SDS011;1833;42.718;23.270;2023-05-07T04:55:03;39.17;;;29.30;;
3633;SDS011;1833;42.718;23.270;2023-05-07T04:57:31;31.33;;;28.30;;
3633;SDS011;1833;42.718;23.270;2023-05-07T04:59:58;37.67;;;28.97;;
3633;SDS011;1833;42.718;23.270;2023-05-07T05:02:25;31.70;;;28.50;;
3633;SDS011;1833;42.718;23.270;2023-05-07T05:04:52;34.33;;;29.80;;
3633;SDS011;1833;42.718;23.270;2023-05-07T05:07:21;33.77;;;30.57;;
3633;SDS011;1833;42.718;23.270;2023-05-07T05:09:48;32.73;;;29.53;;
3633;SDS011;1833;42.718;23.270;2023-05-07T05:12:17;33.77;;;30.57;;
3633;SDS011;1833;42.718;23.270;2023-05-07T05:14:44;32.87;;;29.47;;
3633;SDS011;1833;42.718;23.270;2023-05-07T05:17:12;33.53;;;30.37;;
3633;SDS011;1833;42.718;23.270;2023-05-07T05:19:39;33.40;;;30.20;;
3633;SDS011;1833;42.718;23.270;2023-05-07T05:22:06;32.70;;;29.60;;
3633;SDS011;1833;42.718;23.270;2023-05-07T05:24:35;34.37;;;31.17;;
3633;SDS011;1833;42.718;23.270;2023-05-07T05:27:02;34.10;;;30.60;;
3633;SDS011;1833;42.718;23.270;2023-05-07T05:29:30;34.03;;;30.60;;
3633;SDS011;1833;42.718;23.270;2023-05-07T05:31:57;34.23;;;30.90;;
3633;SDS011;1833;42.718;23.270;2023-05-07T05:34:24;34.50;;;31.13;;
3633;SDS011;1833;42.718;23.270;2023-05-07T05:36:52;33.93;;;30.80;;
3633;SDS011;1833;42.718;23.270;2023-05-07T05:39:20;34.00;;;31.00;;
3633;SDS011;1833;42.718;23.270;2023-05-07T05:41:49;36.90;;;33.50;;
3633;SDS011;1833;42.718;23.270;2023-05-07T05:44:16;36.00;;;32.67;;
3633;SDS011;1833;42.718;23.270;2023-05-07T05:46:44;37.00;;;33.60;;
3633;SDS011;1833;42.718;23.270;2023-05-07T05:49:11;36.40;;;33.07;;
3633;SDS011;1833;42.718;23.270;2023-05-07T05:51:38;52.77;;;46.97;;
3633;SDS011;1833;42.718;23.270;2023-05-07T05:54:06;42.07;;;37.97;;
3633;SDS011;1833;42.718;23.270;2023-05-07T05:56:33;48.70;;;43.23;;
3633;SDS011;1833;42.718;23.270;2023-05-07T05:59:02;46.13;;;41.03;;
3633;SDS011;1833;42.718;23.270;2023-05-07T06:01:29;55.33;;;44.30;;
3633;SDS011;1833;42.718;23.270;2023-05-07T06:03:56;36.03;;;32.53;;
3633;SDS011;1833;42.718;23.270;2023-05-07T06:06:23;36.73;;;33.23;;
3633;SDS011;1833;42.718;23.270;2023-05-07T06:08:51;37.67;;;34.07;;
3633;SDS011;1833;42.718;23.270;2023-05-07T06:11:18;38.27;;;34.43;;
3633;SDS011;1833;42.718;23.270;2023-05-07T06:13:45;38.07;;;34.27;;
3633;SDS011;1833;42.718;23.270;2023-05-07T06:16:14;37.20;;;33.60;;
3633;SDS011;1833;42.718;23.270;2023-05-07T06:18:41;40.53;;;35.40;;
3633;SDS011;1833;42.718;23.270;2023-05-07T06:21:10;38.93;;;35.13;;
3633;SDS011;1833;42.718;23.270;2023-05-07T06:23:37;38.90;;;34.90;;
3633;SDS011;1833;42.718;23.270;2023-05-07T06:26:05;42.47;;;38.03;;
3633;SDS011;1833;42.718;23.270;2023-05-07T06:28:33;39.50;;;35.27;;
3633;SDS011;1833;42.718;23.270;2023-05-07T06:31:10;52.93;;;47.07;;
3633;SDS011;1833;42.718;23.270;2023-05-07T06:33:39;34.90;;;31.50;;
3633;SDS011;1833;42.718;23.270;2023-05-07T06:36:06;59.27;;;50.77;;
3633;SDS011;1833;42.718;23.270;2023-05-07T06:38:34;39.47;;;35.57;;
3633;SDS011;1833;42.718;23.270;2023-05-07T06:41:01;41.33;;;37.27;;
3633;SDS011;1833;42.718;23.270;2023-05-07T06:43:28;50.57;;;45.07;;
3633;SDS011;1833;42.718;23.270;2023-05-07T06:45:55;39.87;;;35.87;;
3633;SDS011;1833;42.718;23.270;2023-05-07T06:48:23;39.67;;;35.97;;
3633;SDS011;1833;42.718;23.270;2023-05-07T06:50:52;37.93;;;34.33;;
3633;SDS011;1833;42.718;23.270;2023-05-07T06:53:20;38.00;;;34.30;;
3633;SDS011;1833;42.718;23.270;2023-05-07T06:55:48;37.83;;;34.23;;
3633;SDS011;1833;42.718;23.270;2023-05-07T06:58:15;38.03;;;34.43;;
3633;SDS011;1833;42.718;23.270;2023-05-07T07:00:42;37.33;;;33.80;;
3633;SDS011;1833;42.718;23.270;2023-05-07T07:03:10;37.07;;;33.60;;
3633;SDS011;1833;42.718;23.270;2023-05-07T07:05:38;49.20;;;35.17;;
3633;SDS011;1833;42.718;23.270;2023-05-07T07:08:06;37.10;;;33.50;;
3633;SDS011;1833;42.718;23.270;2023-05-07T07:10:34;38.30;;;34.60;;
3633;SDS011;1833;42.718;23.270;2023-05-07T07:13:01;45.77;;;33.07;;
3633;SDS011;1833;42.718;23.270;2023-05-07T07:15:28;43.47;;;39.07;;
3633;SDS011;1833;42.718;23.270;2023-05-07T07:17:56;37.00;;;32.53;;
3633;SDS011;1833;42.718;23.270;2023-05-07T07:20:23;38.43;;;34.33;;
3633;SDS011;1833;42.718;23.270;2023-05-07T07:22:50;36.57;;;33.17;;
3633;SDS011;1833;42.718;23.270;2023-05-07T07:25:19;35.93;;;32.40;;
3633;SDS011;1833;42.718;23.270;2023-05-07T07:27:46;36.43;;;33.03;;
3633;SDS011;1833;42.718;23.270;2023-05-07T07:30:13;38.47;;;34.33;;
3633;SDS011;1833;42.718;23.270;2023-05-07T07:32:41;36.63;;;32.90;;
3633;SDS011;1833;42.718;23.270;2023-05-07T07:35:10;37.17;;;33.50;;
3633;SDS011;1833;42.718;23.270;2023-05-07T07:37:37;35.70;;;32.10;;
3633;SDS011;1833;42.718;23.270;2023-05-07T07:40:04;36.20;;;32.70;;
3633;SDS011;1833;42.718;23.270;2023-05-07T07:42:33;36.67;;;33.20;;
3633;SDS011;1833;42.718;23.270;2023-05-07T07:45:01;36.47;;;33.03;;
3633;SDS011;1833;42.718;23.270;2023-05-07T07:47:28;36.50;;;32.90;;
3633;SDS011;1833;42.718;23.270;2023-05-07T07:49:55;36.13;;;32.40;;
3633;SDS011;1833;42.718;23.270;2023-05-07T07:52:22;36.60;;;33.00;;
3633;SDS011;1833;42.718;23.270;2023-05-07T07:54:49;36.77;;;33.27;;
3633;SDS011;1833;42.718;23.270;2023-05-07T07:57:17;35.30;;;31.60;;
3633;SDS011;1833;42.718;23.270;2023-05-07T07:59:45;35.63;;;32.33;;
3633;SDS011;1833;42.718;23.270;2023-05-07T08:02:13;36.33;;;32.77;;
3633;SDS011;1833;42.718;23.270;2023-05-07T08:04:40;36.23;;;32.90;;
3633;SDS011;1833;42.718;23.270;2023-05-07T08:07:08;34.33;;;30.87;;
3633;SDS011;1833;42.718;23.270;2023-05-07T08:09:36;34.90;;;31.50;;
3633;SDS011;1833;42.718;23.270;2023-05-07T08:12:04;34.27;;;31.17;;
3633;SDS011;1833;42.718;23.270;2023-05-07T08:14:31;34.67;;;31.50;;
3633;SDS011;1833;42.718;23.270;2023-05-07T08:17:00;35.80;;;32.50;;
3633;SDS011;1833;42.718;23.270;2023-05-07T08:19:27;32.20;;;29.30;;
3633;SDS011;1833;42.718;23.270;2023-05-07T08:21:54;36.00;;;32.40;;
3633;SDS011;1833;42.718;23.270;2023-05-07T08:24:21;38.93;;;33.63;;
3633;SDS011;1833;42.718;23.270;2023-05-07T08:26:49;34.00;;;30.70;;
3633;SDS011;1833;42.718;23.270;2023-05-07T08:29:16;38.90;;;30.57;;
3633;SDS011;1833;42.718;23.270;2023-05-07T08:31:43;33.90;;;30.60;;
3633;SDS011;1833;42.718;23.270;2023-05-07T08:34:12;33.50;;;30.27;;
3633;SDS011;1833;42.718;23.270;2023-05-07T08:36:39;34.40;;;30.87;;
3633;SDS011;1833;42.718;23.270;2023-05-07T08:39:07;34.17;;;30.53;;
3633;SDS011;1833;42.718;23.270;2023-05-07T08:41:34;33.30;;;30.07;;
3633;SDS011;1833;42.718;23.270;2023-05-07T08:44:02;34.43;;;31.03;;
3633;SDS011;1833;42.718;23.270;2023-05-07T08:46:30;35.73;;;32.00;;
3633;SDS011;1833;42.718;23.270;2023-05-07T08:48:58;33.20;;;30.00;;
3633;SDS011;1833;42.718;23.270;2023-05-07T08:51:27;39.10;;;29.67;;
3633;SDS011;1833;42.718;23.270;2023-05-07T08:53:54;32.53;;;29.43;;
3633;SDS011;1833;42.718;23.270;2023-05-07T08:56:21;32.60;;;29.17;;
3633;SDS011;1833;42.718;23.270;2023-05-07T08:58:48;32.33;;;29.27;;
3633;SDS011;1833;42.718;23.270;2023-05-07T09:01:16;32.50;;;29.60;;
3633;SDS011;1833;42.718;23.270;2023-05-07T09:03:44;33.13;;;29.73;;
3633;SDS011;1833;42.718;23.270;2023-05-07T09:06:11;31.40;;;28.40;;
3633;SDS011;1833;42.718;23.270;2023-05-07T09:08:40;37.43;;;29.80;;
3633;SDS011;1833;42.718;23.270;2023-05-07T09:11:07;31.97;;;28.67;;
3633;SDS011;1833;42.718;23.270;2023-05-07T09:13:35;33.20;;;30.00;;
3633;SDS011;1833;42.718;23.270;2023-05-07T09:16:09;33.03;;;29.90;;
3633;SDS011;1833;42.718;23.270;2023-05-07T09:18:40;33.13;;;30.00;;
3633;SDS011;1833;42.718;23.270;2023-05-07T09:21:09;32.47;;;29.57;;
3633;SDS011;1833;42.718;23.270;2023-05-07T09:23:37;32.90;;;29.80;;
3633;SDS011;1833;42.718;23.270;2023-05-07T09:26:06;32.13;;;28.90;;
3633;SDS011;1833;42.718;23.270;2023-05-07T09:28:38;32.57;;;29.20;;
3633;SDS011;1833;42.718;23.270;2023-05-07T09:31:06;31.00;;;28.20;;
3633;SDS011;1833;42.718;23.270;2023-05-07T09:33:33;33.40;;;29.53;;
3633;SDS011;1833;42.718;23.270;2023-05-07T09:36:04;32.60;;;29.50;;
3633;SDS011;1833;42.718;23.270;2023-05-07T09:38:31;32.60;;;29.40;;
3633;SDS011;1833;42.718;23.270;2023-05-07T09:41:02;31.83;;;28.93;;
3633;SDS011;1833;42.718;23.270;2023-05-07T09:43:33;31.40;;;28.67;;
3633;SDS011;1833;42.718;23.270;2023-05-07T09:46:05;31.07;;;28.20;;
3633;SDS011;1833;42.718;23.270;2023-05-07T09:48:35;33.23;;;28.40;;
3633;SDS011;1833;42.718;23.270;2023-05-07T09:51:05;30.27;;;27.43;;
3633;SDS011;1833;42.718;23.270;2023-05-07T09:53:33;31.90;;;29.00;;
3633;SDS011;1833;42.718;23.270;2023-05-07T09:56:00;32.03;;;28.90;;
3633;SDS011;1833;42.718;23.270;2023-05-07T09:58:29;30.75;;;28.02;;
3633;SDS011;1833;42.718;23.270;2023-05-07T10:00:58;30.37;;;27.50;;
3633;SDS011;1833;42.718;23.270;2023-05-07T10:03:25;30.53;;;27.70;;
3633;SDS011;1833;42.718;23.270;2023-05-07T10:05:55;30.03;;;27.13;;
3633;SDS011;1833;42.718;23.270;2023-05-07T10:08:22;31.65;;;28.50;;
3633;SDS011;1833;42.718;23.270;2023-05-07T10:10:49;31.33;;;28.30;;
3633;SDS011;1833;42.718;23.270;2023-05-07T10:13:17;30.87;;;28.27;;
3633;SDS011;1833;42.718;23.270;2023-05-07T10:15:45;31.10;;;28.30;;
3633;SDS011;1833;42.718;23.270;2023-05-07T10:18:15;31.30;;;28.53;;
3633;SDS011;1833;42.718;23.270;2023-05-07T10:20:42;30.30;;;27.70;;
3633;SDS011;1833;42.718;23.270;2023-05-07T10:23:09;30.17;;;27.10;;
3633;SDS011;1833;42.718;23.270;2023-05-07T10:25:39;30.50;;;27.90;;
3633;SDS011;1833;42.718;23.270;2023-05-07T10:28:08;30.60;;;27.83;;
3633;SDS011;1833;42.718;23.270;2023-05-07T10:30:39;35.63;;;28.50;;
3633;SDS011;1833;42.718;23.270;2023-05-07T10:33:09;32.70;;;29.17;;
3633;SDS011;1833;42.718;23.270;2023-05-07T10:35:39;30.30;;;27.50;;
3633;SDS011;1833;42.718;23.270;2023-05-07T10:38:07;30.90;;;28.23;;
3633;SDS011;1833;42.718;23.270;2023-05-07T10:40:35;30.83;;;28.10;;
3633;SDS011;1833;42.718;23.270;2023-05-07T10:43:03;30.83;;;27.97;;
3633;SDS011;1833;42.718;23.270;2023-05-07T10:45:31;29.90;;;27.40;;
3633;SDS011;1833;42.718;23.270;2023-05-07T10:48:11;29.77;;;27.17;;
3633;SDS011;1833;42.718;23.270;2023-05-07T10:50:40;30.50;;;27.80;;
3633;SDS011;1833;42.718;23.270;2023-05-07T10:58:40;29.73;;;27.03;;
3633;SDS011;1833;42.718;23.270;2023-05-07T11:01:08;29.98;;;27.30;;
3633;SDS011;1833;42.718;23.270;2023-05-07T11:03:37;30.42;;;27.58;;
3633;SDS011;1833;42.718;23.270;2023-05-07T11:06:26;30.35;;;27.55;;
3633;SDS011;1833;42.718;23.270;2023-05-07T11:08:54;30.90;;;27.58;;
3633;SDS011;1833;42.718;23.270;2023-05-07T11:14:03;29.67;;;27.08;;
3633;SDS011;1833;42.718;23.270;2023-05-07T11:16:31;30.55;;;27.80;;
3633;SDS011;1833;42.718;23.270;2023-05-07T11:19:01;29.80;;;27.15;;
3633;SDS011;1833;42.718;23.270;2023-05-07T11:21:34;30.30;;;27.40;;
3633;SDS011;1833;42.718;23.270;2023-05-07T11:24:01;30.63;;;27.83;;
3633;SDS011;1833;42.718;23.270;2023-05-07T11:26:30;30.33;;;27.23;;
3633;SDS011;1833;42.718;23.270;2023-05-07T11:28:57;29.52;;;26.92;;
3633;SDS011;1833;42.718;23.270;2023-05-07T11:31:26;30.77;;;27.70;;
3633;SDS011;1833;42.718;23.270;2023-05-07T11:33:54;30.27;;;27.58;;
3633;SDS011;1833;42.718;23.270;2023-05-07T11:36:23;29.80;;;27.15;;
3633;SDS011;1833;42.718;23.270;2023-05-07T11:38:52;28.85;;;26.33;;
3633;SDS011;1833;42.718;23.270;2023-05-07T11:41:20;30.15;;;27.38;;
3633;SDS011;1833;42.718;23.270;2023-05-07T11:43:54;29.90;;;27.20;;
3633;SDS011;1833;42.718;23.270;2023-05-07T11:46:22;30.35;;;27.65;;
3633;SDS011;1833;42.718;23.270;2023-05-07T11:48:49;30.83;;;28.02;;
3633;SDS011;1833;42.718;23.270;2023-05-07T11:51:20;30.00;;;27.25;;
3633;SDS011;1833;42.718;23.270;2023-05-07T11:53:47;29.80;;;27.00;;
3633;SDS011;1833;42.718;23.270;2023-05-07T11:56:17;32.73;;;29.13;;
3633;SDS011;1833;42.718;23.270;2023-05-07T11:58:45;29.03;;;26.43;;
3633;SDS011;1833;42.718;23.270;2023-05-07T12:01:13;29.40;;;26.80;;
3633;SDS011;1833;42.718;23.270;2023-05-07T12:03:42;31.17;;;28.37;;
3633;SDS011;1833;42.718;23.270;2023-05-07T12:06:11;48.03;;;28.80;;
3633;SDS011;1833;42.718;23.270;2023-05-07T12:08:39;31.33;;;28.63;;
3633;SDS011;1833;42.718;23.270;2023-05-07T12:11:06;29.37;;;26.57;;
3633;SDS011;1833;42.718;23.270;2023-05-07T12:13:36;30.60;;;27.80;;
3633;SDS011;1833;42.718;23.270;2023-05-07T12:16:03;30.40;;;27.70;;
3633;SDS011;1833;42.718;23.270;2023-05-07T12:18:31;29.90;;;27.20;;
3633;SDS011;1833;42.718;23.270;2023-05-07T12:20:58;30.77;;;27.97;;
3633;SDS011;1833;42.718;23.270;2023-05-07T12:23:26;29.83;;;27.33;;
3633;SDS011;1833;42.718;23.270;2023-05-07T12:25:53;29.67;;;26.80;;
3633;SDS011;1833;42.718;23.270;2023-05-07T12:28:20;30.73;;;27.87;;
3633;SDS011;1833;42.718;23.270;2023-05-07T12:30:50;28.70;;;26.10;;
3633;SDS011;1833;42.718;23.270;2023-05-07T12:33:17;30.07;;;27.37;;
3633;SDS011;1833;42.718;23.270;2023-05-07T12:35:47;30.03;;;27.23;;
3633;SDS011;1833;42.718;23.270;2023-05-07T12:38:16;29.80;;;26.83;;
3633;SDS011;1833;42.718;23.270;2023-05-07T12:40:44;29.37;;;26.77;;
3633;SDS011;1833;42.718;23.270;2023-05-07T12:43:15;29.43;;;26.67;;
3633;SDS011;1833;42.718;23.270;2023-05-07T12:45:43;29.37;;;26.87;;
3633;SDS011;1833;42.718;23.270;2023-05-07T12:48:13;30.20;;;27.30;;
3633;SDS011;1833;42.718;23.270;2023-05-07T12:50:40;29.97;;;27.27;;
3633;SDS011;1833;42.718;23.270;2023-05-07T12:53:09;30.53;;;27.80;;
3633;SDS011;1833;42.718;23.270;2023-05-07T12:55:42;29.87;;;27.17;;
3633;SDS011;1833;42.718;23.270;2023-05-07T12:58:14;28.40;;;25.80;;
3633;SDS011;1833;42.718;23.270;2023-05-07T13:00:42;29.53;;;26.90;;
3633;SDS011;1833;42.718;23.270;2023-05-07T13:03:09;29.97;;;27.27;;
3633;SDS011;1833;42.718;23.270;2023-05-07T13:05:38;30.83;;;27.67;;
3633;SDS011;1833;42.718;23.270;2023-05-07T13:08:06;29.53;;;26.93;;
3633;SDS011;1833;42.718;23.270;2023-05-07T13:10:34;29.70;;;26.97;;
3633;SDS011;1833;42.718;23.270;2023-05-07T13:13:02;28.70;;;26.10;;
3633;SDS011;1833;42.718;23.270;2023-05-07T13:15:29;31.43;;;28.63;;
3633;SDS011;1833;42.718;23.270;2023-05-07T13:17:57;29.80;;;26.83;;
3633;SDS011;1833;42.718;23.270;2023-05-07T13:20:24;30.37;;;27.57;;
3633;SDS011;1833;42.718;23.270;2023-05-07T13:22:53;29.90;;;27.20;;
3633;SDS011;1833;42.718;23.270;2023-05-07T13:25:20;30.10;;;27.20;;
3633;SDS011;1833;42.718;23.270;2023-05-07T13:27:47;29.90;;;27.10;;
3633;SDS011;1833;42.718;23.270;2023-05-07T13:30:15;29.90;;;26.87;;
3633;SDS011;1833;42.718;23.270;2023-05-07T13:32:42;30.60;;;27.70;;
3633;SDS011;1833;42.718;23.270;2023-05-07T13:35:10;29.27;;;26.63;;
3633;SDS011;1833;42.718;23.270;2023-05-07T13:37:38;28.47;;;25.67;;
3633;SDS011;1833;42.718;23.270;2023-05-07T13:40:07;29.03;;;26.50;;
3633;SDS011;1833;42.718;23.270;2023-05-07T13:42:34;30.40;;;27.50;;
3633;SDS011;1833;42.718;23.270;2023-05-07T13:45:02;30.63;;;27.73;;
3633;SDS011;1833;42.718;23.270;2023-05-07T13:47:30;29.37;;;26.67;;
3633;SDS011;1833;42.718;23.270;2023-05-07T13:49:57;29.30;;;26.60;;
3633;SDS011;1833;42.718;23.270;2023-05-07T13:52:24;29.23;;;26.53;;
3633;SDS011;1833;42.718;23.270;2023-05-07T13:54:52;31.47;;;28.50;;
3633;SDS011;1833;42.718;23.270;2023-05-07T13:57:21;29.30;;;26.70;;
3633;SDS011;1833;42.718;23.270;2023-05-07T13:59:48;29.80;;;27.23;;
3633;SDS011;1833;42.718;23.270;2023-05-07T14:02:16;29.90;;;27.20;;
3633;SDS011;1833;42.718;23.270;2023-05-07T14:04:44;30.33;;;27.43;;
3633;SDS011;1833;42.718;23.270;2023-05-07T14:07:11;31.60;;;28.60;;
3633;SDS011;1833;42.718;23.270;2023-05-07T14:09:39;31.17;;;28.37;;
3633;SDS011;1833;42.718;23.270;2023-05-07T14:12:07;29.83;;;26.80;;
3633;SDS011;1833;42.718;23.270;2023-05-07T14:14:35;28.70;;;26.20;;
3633;SDS011;1833;42.718;23.270;2023-05-07T14:17:03;29.77;;;26.63;;
3633;SDS011;1833;42.718;23.270;2023-05-07T14:19:30;30.83;;;27.93;;
3633;SDS011;1833;42.718;23.270;2023-05-07T14:21:57;30.13;;;27.57;;
3633;SDS011;1833;42.718;23.270;2023-05-07T14:24:25;31.17;;;28.30;;
3633;SDS011;1833;42.718;23.270;2023-05-07T14:26:52;29.87;;;27.17;;
3633;SDS011;1833;42.718;23.270;2023-05-07T14:29:19;29.53;;;26.80;;
3633;SDS011;1833;42.718;23.270;2023-05-07T14:31:49;30.17;;;27.40;;
3633;SDS011;1833;42.718;23.270;2023-05-07T14:34:16;29.17;;;26.67;;
3633;SDS011;1833;42.718;23.270;2023-05-07T14:36:43;30.10;;;27.30;;
3633;SDS011;1833;42.718;23.270;2023-05-07T14:39:11;29.30;;;26.80;;
3633;SDS011;1833;42.718;23.270;2023-05-07T14:41:38;32.70;;;29.70;;
3633;SDS011;1833;42.718;23.270;2023-05-07T14:44:05;32.10;;;29.17;;
3633;SDS011;1833;42.718;23.270;2023-05-07T14:46:33;32.13;;;29.10;;